createdAt,value
2022-12-25T00:00:08.720Z,4.80
2022-12-25T00:01:41.624Z,6.00
2022-12-25T00:03:13.912Z,4.60
2022-12-25T00:04:45.815Z,3.50
2022-12-25T00:06:19.713Z,4.00
2022-12-25T00:07:51.688Z,3.80
2022-12-25T00:09:23.426Z,3.70
2022-12-25T00:11:07.689Z,4.50
2022-12-25T00:12:39.620Z,3.70
2022-12-25T00:14:11.506Z,4.40
2022-12-25T00:15:45.837Z,5.00
2022-12-25T00:17:17.742Z,5.00
2022-12-25T00:18:51.231Z,4.70
2022-12-25T00:20:23.192Z,4.20
2022-12-25T00:21:56.029Z,4.00
2022-12-25T00:23:29.154Z,5.20
2022-12-25T00:25:01.293Z,3.80
2022-12-25T00:26:33.116Z,3.90
2022-12-25T00:28:05.258Z,4.40
2022-12-25T00:29:37.425Z,5.10
2022-12-25T00:31:16.839Z,5.20
2022-12-25T00:32:48.806Z,7.10
2022-12-25T00:34:20.609Z,6.40
2022-12-25T00:36:01.097Z,5.50
2022-12-25T00:37:32.923Z,4.00
2022-12-25T00:39:05.223Z,4.70
2022-12-25T00:40:44.530Z,3.70
2022-12-25T00:42:19.009Z,3.70
2022-12-25T00:43:50.707Z,3.90
2022-12-25T00:45:22.841Z,3.80
2022-12-25T00:46:54.796Z,3.40
2022-12-25T00:48:28.413Z,3.20
2022-12-25T00:50:00.185Z,3.50
2022-12-25T00:51:33.016Z,3.60
2022-12-25T00:53:05.033Z,3.50
2022-12-25T00:54:37.911Z,3.80
2022-12-25T00:56:10.662Z,3.40
2022-12-25T00:57:42.900Z,3.20
2022-12-25T00:59:16.128Z,3.20
2022-12-25T01:00:49.847Z,2.80
2022-12-25T01:02:25.599Z,4.30
2022-12-25T01:04:02.980Z,4.50
2022-12-25T01:05:34.735Z,4.00
2022-12-25T01:07:06.468Z,3.60
2022-12-25T01:09:01.061Z,2.90
2022-12-25T01:10:32.850Z,2.30
2022-12-25T01:12:04.769Z,2.80
2022-12-25T01:13:38.992Z,2.90
2022-12-25T01:15:13.590Z,2.70
2022-12-25T01:16:45.720Z,2.70
2022-12-25T01:18:18.965Z,2.90
2022-12-25T01:19:50.907Z,2.50
2022-12-25T01:21:27.845Z,2.40
2022-12-25T01:22:59.688Z,2.50
2022-12-25T01:24:31.488Z,2.80
2022-12-25T01:26:09.834Z,2.80
2022-12-25T01:27:42.607Z,2.70
2022-12-25T01:29:14.414Z,2.40
2022-12-25T01:30:50.505Z,2.50
2022-12-25T01:32:22.367Z,2.30
2022-12-25T01:33:54.215Z,2.30
2022-12-25T01:35:26.130Z,2.60
2022-12-25T01:36:57.968Z,2.70
2022-12-25T01:38:29.874Z,2.20
2022-12-25T01:40:01.914Z,2.00
2022-12-25T01:41:34.481Z,2.30
2022-12-25T01:43:31.510Z,2.90
2022-12-25T01:45:46.897Z,2.20
2022-12-25T01:47:19.087Z,1.80
2022-12-25T01:48:54.329Z,2.30
2022-12-25T01:50:29.291Z,1.70
2022-12-25T01:52:12.541Z,2.10
2022-12-25T01:53:44.387Z,1.90
2022-12-25T01:55:17.237Z,1.70
2022-12-25T01:56:52.349Z,1.60
2022-12-25T01:58:48.547Z,1.80
2022-12-25T02:00:30.285Z,1.90
2022-12-25T02:02:03.586Z,1.60
2022-12-25T02:03:35.494Z,2.00
2022-12-25T02:05:18.021Z,1.70
2022-12-25T02:06:52.077Z,1.40
2022-12-25T02:08:25.549Z,1.50
2022-12-25T02:09:59.086Z,1.60
2022-12-25T02:12:00.262Z,2.00
2022-12-25T02:13:32.520Z,1.60
2022-12-25T02:15:13.328Z,1.40
2022-12-25T02:16:58.807Z,1.30
2022-12-25T02:19:01.946Z,1.30
2022-12-25T02:20:45.713Z,1.40
2022-12-25T02:23:21.429Z,1.40
2022-12-25T02:25:18.543Z,1.40
2022-12-25T02:27:43.509Z,1.60
2022-12-25T02:29:49.925Z,1.30
2022-12-25T02:32:25.011Z,1.40
2022-12-25T02:34:19.229Z,1.20
2022-12-25T02:35:56.755Z,1.50
2022-12-25T02:37:45.230Z,1.60
2022-12-25T02:40:00.274Z,1.00
2022-12-25T02:41:39.775Z,1.30
2022-12-25T02:43:38.201Z,1.30
2022-12-25T02:45:29.089Z,1.70
2022-12-25T02:47:25.541Z,1.10
2022-12-25T02:49:41.059Z,1.00
2022-12-25T02:51:41.039Z,1.30
2022-12-25T02:53:31.855Z,1.00
2022-12-25T02:55:31.792Z,1.20
2022-12-25T02:57:30.331Z,1.30
2022-12-25T02:59:22.238Z,1.20
2022-12-25T03:01:23.876Z,1.50
2022-12-25T03:03:19.973Z,1.00
2022-12-25T03:05:15.183Z,1.10
2022-12-25T03:07:20.613Z,1.10
2022-12-25T03:09:18.748Z,0.90
2022-12-25T03:11:32.746Z,1.40
2022-12-25T03:13:13.859Z,1.10
2022-12-25T03:15:04.569Z,1.20
2022-12-25T03:16:53.007Z,0.90
2022-12-25T03:18:31.183Z,0.90
2022-12-25T03:20:25.344Z,1.20
2022-12-25T03:22:16.923Z,1.10
2022-12-25T03:24:23.294Z,1.10
2022-12-25T03:26:14.151Z,1.10
2022-12-25T03:27:51.492Z,1.10
2022-12-25T03:29:51.325Z,1.20
2022-12-25T03:31:50.942Z,1.20
2022-12-25T03:34:23.396Z,1.00
2022-12-25T03:36:14.512Z,1.20
2022-12-25T03:38:46.329Z,1.20
2022-12-25T03:41:25.039Z,1.20
2022-12-25T03:43:40.131Z,1.00
2022-12-25T03:45:51.414Z,1.10
2022-12-25T03:47:37.749Z,0.90
2022-12-25T03:49:45.339Z,1.00
2022-12-25T03:51:45.237Z,0.80
2022-12-25T03:53:45.228Z,1.40
2022-12-25T03:55:38.420Z,1.30
2022-12-25T03:57:30.585Z,1.60
2022-12-25T03:59:24.119Z,1.30
2022-12-25T04:01:14.917Z,1.20
2022-12-25T04:03:05.565Z,1.30
2022-12-25T04:04:56.365Z,1.30
2022-12-25T04:06:46.827Z,1.60
2022-12-25T04:08:37.296Z,1.20
2022-12-25T04:10:28.433Z,1.20
2022-12-25T04:12:19.100Z,1.40
2022-12-25T04:14:09.882Z,1.10
2022-12-25T04:16:00.497Z,1.00
2022-12-25T04:17:51.351Z,0.90
2022-12-25T04:19:41.786Z,1.20
2022-12-25T04:21:32.578Z,1.30
2022-12-25T04:23:22.780Z,1.30
2022-12-25T04:25:13.461Z,0.90
2022-12-25T04:27:03.832Z,1.20
2022-12-25T04:28:54.506Z,1.20
2022-12-25T04:30:45.277Z,1.00
2022-12-25T04:32:36.077Z,1.20
2022-12-25T04:34:26.887Z,1.00
2022-12-25T04:36:12.014Z,1.20
2022-12-25T04:37:43.760Z,1.00
2022-12-25T04:39:15.644Z,1.00
2022-12-25T04:40:47.560Z,1.10
2022-12-25T04:42:19.620Z,1.30
2022-12-25T04:43:51.315Z,1.60
2022-12-25T04:45:23.033Z,0.80
2022-12-25T04:46:54.952Z,1.00
2022-12-25T04:48:28.900Z,0.90
2022-12-25T04:50:00.717Z,1.00
2022-12-25T04:51:32.550Z,1.00
2022-12-25T04:53:04.337Z,1.10
2022-12-25T04:54:39.243Z,1.00
2022-12-25T04:56:11.583Z,1.20
2022-12-25T04:57:43.382Z,1.00
2022-12-25T04:59:15.120Z,1.30
2022-12-25T05:00:46.826Z,1.30
2022-12-25T05:02:18.680Z,1.50
2022-12-25T05:03:50.663Z,1.20
2022-12-25T05:05:22.476Z,0.90
2022-12-25T05:06:54.327Z,1.10
2022-12-25T05:08:26.776Z,1.10
2022-12-25T05:09:58.500Z,1.10
2022-12-25T05:11:30.792Z,1.10
2022-12-25T05:13:02.511Z,1.00
2022-12-25T05:14:34.314Z,1.20
2022-12-25T05:16:19.766Z,1.00
2022-12-25T05:17:51.851Z,1.10
2022-12-25T05:19:23.756Z,0.90
2022-12-25T05:20:55.761Z,1.00
2022-12-25T05:22:27.481Z,1.10
2022-12-25T05:23:59.439Z,1.80
2022-12-25T05:25:31.544Z,1.10
2022-12-25T05:27:03.422Z,1.10
2022-12-25T05:28:36.200Z,1.20
2022-12-25T05:30:09.096Z,1.40
2022-12-25T05:31:40.848Z,1.20
2022-12-25T05:33:12.940Z,1.00
2022-12-25T05:34:44.733Z,1.30
2022-12-25T05:36:16.536Z,1.10
2022-12-25T05:37:48.273Z,1.10
2022-12-25T05:39:20.075Z,1.60
2022-12-25T05:40:52.256Z,1.40
2022-12-25T05:42:24.016Z,1.10
2022-12-25T05:43:55.873Z,1.30
2022-12-25T05:45:27.649Z,1.30
2022-12-25T05:46:59.457Z,1.20
2022-12-25T05:48:31.345Z,1.30
2022-12-25T05:50:04.961Z,1.30
2022-12-25T05:51:36.739Z,1.20
2022-12-25T05:53:12.554Z,1.00
2022-12-25T05:54:44.504Z,1.10
2022-12-25T05:56:16.248Z,1.40
2022-12-25T05:57:48.540Z,1.40
2022-12-25T05:59:20.257Z,1.10
2022-12-25T06:00:51.978Z,1.90
2022-12-25T06:02:25.279Z,1.40
2022-12-25T06:03:57.721Z,1.80
2022-12-25T06:05:30.417Z,1.50
2022-12-25T06:07:02.169Z,1.60
2022-12-25T06:08:34.762Z,1.80
2022-12-25T06:10:07.688Z,1.20
2022-12-25T06:11:41.339Z,1.60
2022-12-25T06:13:13.529Z,1.60
2022-12-25T06:14:45.238Z,1.50
2022-12-25T06:16:17.300Z,1.20
2022-12-25T06:17:49.019Z,1.40
2022-12-25T06:19:22.314Z,1.70
2022-12-25T06:20:54.046Z,1.60
2022-12-25T06:22:30.793Z,1.70
2022-12-25T06:24:03.329Z,1.30
2022-12-25T06:25:40.433Z,1.10
2022-12-25T06:27:12.248Z,0.90
2022-12-25T06:28:44.986Z,1.40
2022-12-25T06:30:17.009Z,1.00
2022-12-25T06:31:49.728Z,1.00
2022-12-25T06:33:21.550Z,0.80
2022-12-25T06:34:53.325Z,1.30
2022-12-25T06:36:29.382Z,1.30
2022-12-25T06:38:01.331Z,1.30
2022-12-25T06:39:36.233Z,1.10
2022-12-25T06:41:14.545Z,1.10
2022-12-25T06:42:46.377Z,1.30
2022-12-25T06:44:18.147Z,1.10
2022-12-25T06:45:54.918Z,1.10
2022-12-25T06:47:26.785Z,1.00
2022-12-25T06:49:01.286Z,0.90
2022-12-25T06:50:33.091Z,0.90
2022-12-25T06:52:05.194Z,0.90
2022-12-25T06:53:40.243Z,0.90
2022-12-25T06:55:14.746Z,1.00
2022-12-25T06:56:46.790Z,1.10
2022-12-25T06:58:18.775Z,0.90
2022-12-25T06:59:55.039Z,1.00
2022-12-25T07:01:27.390Z,1.30
2022-12-25T07:02:59.584Z,0.90
2022-12-25T07:04:40.287Z,1.10
2022-12-25T07:06:12.166Z,1.30
2022-12-25T07:07:44.001Z,1.00
2022-12-25T07:09:15.833Z,0.90
2022-12-25T07:10:47.564Z,1.00
2022-12-25T07:12:24.258Z,1.00
2022-12-25T07:13:56.702Z,1.30
2022-12-25T07:15:28.365Z,1.00
2022-12-25T07:17:00.204Z,0.90
2022-12-25T07:18:32.802Z,1.60
2022-12-25T07:20:06.961Z,1.20
2022-12-25T07:21:38.760Z,1.20
2022-12-25T07:23:10.511Z,1.00
2022-12-25T07:24:42.341Z,1.30
2022-12-25T07:26:14.513Z,0.90
2022-12-25T07:27:46.197Z,0.90
2022-12-25T07:29:19.620Z,1.20
2022-12-25T07:30:51.960Z,1.30
2022-12-25T07:32:23.779Z,0.90
2022-12-25T07:33:55.617Z,1.10
2022-12-25T07:35:27.353Z,0.90
2022-12-25T07:38:17.776Z,1.20
2022-12-25T07:39:49.491Z,1.10
2022-12-25T07:41:21.300Z,1.30
2022-12-25T07:42:53.151Z,1.20
2022-12-25T07:44:24.916Z,1.00
2022-12-25T07:46:00.896Z,0.80
2022-12-25T07:47:32.863Z,0.90
2022-12-25T07:49:04.576Z,1.10
2022-12-25T07:50:36.329Z,1.10
2022-12-25T07:52:08.074Z,1.20
2022-12-25T07:53:40.864Z,1.10
2022-12-25T07:55:13.862Z,0.90
2022-12-25T07:56:45.959Z,0.90
2022-12-25T07:58:23.164Z,1.20
2022-12-25T07:59:55.431Z,1.00
2022-12-25T08:01:28.915Z,1.10
2022-12-25T08:03:00.898Z,1.60
2022-12-25T08:04:32.787Z,1.00
2022-12-25T08:06:10.674Z,0.90
2022-12-25T08:07:42.347Z,1.40
2022-12-25T08:09:14.112Z,1.10
2022-12-25T08:10:48.233Z,1.00
2022-12-25T08:12:20.013Z,1.20
2022-12-25T08:25:54.195Z,1.10
2022-12-25T08:27:28.599Z,0.90
2022-12-25T08:29:00.388Z,1.00
2022-12-25T08:30:32.372Z,1.10
2022-12-25T08:32:04.498Z,0.90
2022-12-25T08:33:37.674Z,1.40
2022-12-25T08:35:09.754Z,1.10
2022-12-25T08:36:41.810Z,2.70
2022-12-25T08:38:13.747Z,1.40
2022-12-25T08:39:46.108Z,1.30
2022-12-25T08:41:18.688Z,1.40
2022-12-25T08:42:51.789Z,1.40
2022-12-25T08:44:23.530Z,1.20
2022-12-25T08:45:55.661Z,1.20
2022-12-25T08:47:27.391Z,1.60
2022-12-25T08:48:59.391Z,1.40
2022-12-25T08:50:31.244Z,1.60
2022-12-25T08:52:03.086Z,2.10
2022-12-25T08:53:34.835Z,1.30
2022-12-25T08:55:08.564Z,1.00
2022-12-25T08:56:40.394Z,1.20
2022-12-25T08:58:12.850Z,1.50
2022-12-25T08:59:44.597Z,1.40
2022-12-25T09:01:16.890Z,1.40
2022-12-25T09:02:48.888Z,1.10
2022-12-25T09:04:20.887Z,1.20
2022-12-25T09:05:54.452Z,1.40
2022-12-25T09:07:26.262Z,1.30
2022-12-25T09:08:58.070Z,1.30
2022-12-25T09:10:30.171Z,1.40
2022-12-25T09:12:01.907Z,1.20
2022-12-25T09:13:34.139Z,1.30
2022-12-25T09:15:06.844Z,1.30
2022-12-25T09:16:38.629Z,1.10
2022-12-25T09:18:10.418Z,1.40
2022-12-25T09:19:42.164Z,1.20
2022-12-25T09:21:16.207Z,1.10
2022-12-25T09:22:47.923Z,1.50
2022-12-25T09:24:20.847Z,1.40
2022-12-25T09:25:52.559Z,1.50
2022-12-25T09:27:24.300Z,1.60
2022-12-25T09:28:56.034Z,1.20
2022-12-25T09:30:27.929Z,1.60
2022-12-25T09:31:59.623Z,1.70
2022-12-25T09:33:31.395Z,2.50
2022-12-25T09:35:03.216Z,2.50
2022-12-25T09:36:35.003Z,2.30
2022-12-25T09:38:06.681Z,1.70
2022-12-25T09:39:45.872Z,1.40
2022-12-25T09:41:48.332Z,1.80
2022-12-25T09:43:21.842Z,1.70
2022-12-25T09:45:00.617Z,1.40
2022-12-25T09:46:47.469Z,1.50
2022-12-25T09:48:19.571Z,1.60
2022-12-25T09:50:23.862Z,1.50
2022-12-25T09:52:22.690Z,1.50
2022-12-25T09:54:06.930Z,1.70
2022-12-25T09:55:52.951Z,1.70
2022-12-25T09:57:26.195Z,1.30
2022-12-25T09:58:58.863Z,1.40
2022-12-25T10:00:46.252Z,2.80
2022-12-25T10:02:46.716Z,3.10
2022-12-25T10:05:21.495Z,2.60
2022-12-25T10:07:29.609Z,2.60
2022-12-25T10:09:10.076Z,2.00
2022-12-25T10:10:56.122Z,2.10
2022-12-25T10:12:50.423Z,1.80
2022-12-25T10:14:59.538Z,2.00
2022-12-25T10:16:50.423Z,1.80
2022-12-25T10:18:49.447Z,2.10
2022-12-25T10:20:35.771Z,2.50
2022-12-25T10:22:25.622Z,2.20
2022-12-25T10:24:31.926Z,2.00
2022-12-25T10:26:19.424Z,1.90
2022-12-25T10:27:59.506Z,2.10
2022-12-25T10:29:33.377Z,2.00
2022-12-25T10:31:30.148Z,2.10
2022-12-25T10:33:02.158Z,2.40
2022-12-25T10:34:43.544Z,2.20
2022-12-25T10:36:19.702Z,2.30
2022-12-25T10:38:02.468Z,2.60
2022-12-25T10:39:34.324Z,2.20
2022-12-25T10:41:11.768Z,2.20
2022-12-25T10:42:48.348Z,2.10
2022-12-25T10:44:24.446Z,2.30
2022-12-25T10:45:56.271Z,2.30
2022-12-25T10:47:37.993Z,1.80
2022-12-25T10:49:18.374Z,1.70
2022-12-25T10:50:50.761Z,2.40
2022-12-25T10:52:28.932Z,2.50
2022-12-25T10:54:04.327Z,2.20
2022-12-25T10:55:36.078Z,2.10
2022-12-25T10:57:07.720Z,2.20
2022-12-25T10:58:39.563Z,2.30
2022-12-25T11:00:30.592Z,2.20
2022-12-25T11:02:34.875Z,2.50
2022-12-25T11:04:06.850Z,2.50
2022-12-25T11:05:39.051Z,3.00
2022-12-25T11:07:18.497Z,2.70
2022-12-25T11:09:02.152Z,2.50
2022-12-25T11:10:43.947Z,2.80
2022-12-25T11:12:20.179Z,2.90
2022-12-25T11:13:59.794Z,2.80
2022-12-25T11:15:43.025Z,2.60
2022-12-25T11:17:22.180Z,2.60
2022-12-25T11:18:55.035Z,3.20
2022-12-25T11:20:26.933Z,3.10
2022-12-25T11:22:01.854Z,3.90
2022-12-25T11:23:33.670Z,3.40
2022-12-25T11:25:22.614Z,2.80
2022-12-25T11:27:01.352Z,2.70
2022-12-25T11:28:38.493Z,2.40
2022-12-25T11:30:16.155Z,2.20
2022-12-25T11:31:50.803Z,2.10
2022-12-25T11:33:30.486Z,1.80
2022-12-25T11:35:03.635Z,1.80
2022-12-25T11:36:46.556Z,1.80
2022-12-25T11:38:19.612Z,1.40
2022-12-25T11:39:51.406Z,2.00
2022-12-25T11:41:32.422Z,2.00
2022-12-25T11:43:15.997Z,2.10
2022-12-25T11:45:08.729Z,2.40
2022-12-25T11:46:48.309Z,1.80
2022-12-25T11:48:56.211Z,1.80
2022-12-25T11:50:43.512Z,1.80
2022-12-25T11:52:18.023Z,1.60
2022-12-25T11:54:04.987Z,1.70
2022-12-25T11:55:54.357Z,2.50
2022-12-25T11:57:31.378Z,2.60
2022-12-25T11:59:27.930Z,1.80
2022-12-25T12:01:09.239Z,1.90
2022-12-25T12:03:06.596Z,1.70
2022-12-25T12:04:47.808Z,2.20
2022-12-25T12:07:01.403Z,1.90
2022-12-25T12:08:36.186Z,1.60
2022-12-25T12:10:33.642Z,1.10
2022-12-25T12:12:19.992Z,1.90
2022-12-25T12:14:23.428Z,2.00
2022-12-25T12:15:56.553Z,2.20
2022-12-25T12:17:28.599Z,1.70
2022-12-25T12:19:26.773Z,1.70
2022-12-25T12:21:30.103Z,2.00
2022-12-25T12:23:11.230Z,1.80
2022-12-25T12:24:44.808Z,1.70
2022-12-25T12:26:23.789Z,1.40
2022-12-25T12:28:05.203Z,1.50
2022-12-25T12:29:48.551Z,1.60
2022-12-25T12:31:20.481Z,1.70
2022-12-25T12:35:22.371Z,1.90
2022-12-25T12:37:06.378Z,1.80
2022-12-25T12:38:41.309Z,1.50
2022-12-25T12:40:43.838Z,1.80
2022-12-25T12:42:21.551Z,1.60
2022-12-25T12:43:59.748Z,1.40
2022-12-25T12:45:40.599Z,1.80
2022-12-25T12:47:29.338Z,1.80
2022-12-25T12:49:28.540Z,1.80
2022-12-25T12:51:11.801Z,1.80
2022-12-25T12:52:43.614Z,1.60
2022-12-25T12:54:27.983Z,1.70
2022-12-25T12:56:20.803Z,1.70
2022-12-25T12:58:00.785Z,2.10
2022-12-25T12:59:46.848Z,2.30
2022-12-25T13:01:27.344Z,2.20
2022-12-25T13:03:35.784Z,2.00
2022-12-25T13:05:34.850Z,2.10
2022-12-25T13:07:48.694Z,1.80
2022-12-25T13:09:47.726Z,2.20
2022-12-25T13:11:43.026Z,2.20
2022-12-25T13:13:29.898Z,1.90
2022-12-25T13:15:02.152Z,2.10
2022-12-25T13:16:39.659Z,2.50
2022-12-25T13:18:16.336Z,1.80
2022-12-25T13:20:16.849Z,1.60
2022-12-25T13:22:06.228Z,2.60
2022-12-25T13:23:39.137Z,2.60
2022-12-25T13:25:24.508Z,1.70
2022-12-25T13:26:59.605Z,1.80
2022-12-25T13:28:36.565Z,2.10
2022-12-25T13:30:19.754Z,1.70
2022-12-25T13:31:51.970Z,2.20
2022-12-25T13:33:24.604Z,2.10
2022-12-25T13:34:58.433Z,2.40
2022-12-25T13:36:37.356Z,2.50
2022-12-25T13:38:17.531Z,2.10
2022-12-25T13:39:53.681Z,2.30
2022-12-25T13:41:59.020Z,2.30
2022-12-25T13:43:32.322Z,2.90
2022-12-25T13:45:14.398Z,2.60
2022-12-25T13:46:47.496Z,2.80
2022-12-25T13:48:21.083Z,2.60
2022-12-25T13:49:59.556Z,2.60
2022-12-25T13:51:31.388Z,2.90
2022-12-25T13:53:18.578Z,2.70
2022-12-25T13:55:33.356Z,2.50
2022-12-25T13:57:15.173Z,2.10
2022-12-25T13:58:48.540Z,2.40
2022-12-25T14:00:38.936Z,2.30
2022-12-25T14:02:28.657Z,2.30
2022-12-25T14:04:00.800Z,2.40
2022-12-25T14:05:42.299Z,2.50
2022-12-25T14:07:24.289Z,2.30
2022-12-25T14:09:00.823Z,2.60
2022-12-25T14:10:38.487Z,2.60
2022-12-25T14:12:17.325Z,2.60
2022-12-25T14:14:14.733Z,2.60
2022-12-25T14:15:51.257Z,2.80
2022-12-25T14:17:24.185Z,2.70
2022-12-25T14:19:02.718Z,2.70
2022-12-25T14:20:44.921Z,3.00
2022-12-25T14:22:23.991Z,2.60
2022-12-25T14:23:56.888Z,2.30
2022-12-25T14:25:41.342Z,2.50
2022-12-25T14:27:27.947Z,2.70
2022-12-25T14:29:16.772Z,2.50
2022-12-25T14:30:49.667Z,3.00
2022-12-25T14:32:31.795Z,2.30
2022-12-25T14:34:10.167Z,2.70
2022-12-25T14:35:42.547Z,2.80
2022-12-25T14:37:23.662Z,2.60
2022-12-25T14:38:59.840Z,2.40
2022-12-25T14:40:36.134Z,2.80
2022-12-25T14:42:22.930Z,2.90
2022-12-25T14:43:55.957Z,3.60
2022-12-25T14:45:32.207Z,3.60
2022-12-25T14:47:11.637Z,4.10
2022-12-25T14:48:45.907Z,3.30
2022-12-25T14:50:39.385Z,3.60
2022-12-25T14:52:31.357Z,3.90
2022-12-25T14:54:14.141Z,4.00
2022-12-25T14:55:53.308Z,3.90
2022-12-25T14:57:54.055Z,3.70
2022-12-25T14:59:29.569Z,4.30
2022-12-25T15:01:05.295Z,4.30
2022-12-25T15:02:46.100Z,5.00
2022-12-25T15:04:20.578Z,4.80
2022-12-25T15:06:11.958Z,5.00
2022-12-25T15:07:46.200Z,4.80
2022-12-25T15:09:19.525Z,4.70
2022-12-25T15:11:01.517Z,5.20
2022-12-25T15:12:34.071Z,5.20
2022-12-25T15:14:06.177Z,5.80
2022-12-25T15:15:39.983Z,5.60
2022-12-25T15:17:28.816Z,6.00
2022-12-25T15:19:27.220Z,5.40
2022-12-25T15:21:04.003Z,6.20
2022-12-25T15:23:02.492Z,6.80
2022-12-25T15:24:27.961Z,6.10
2022-12-25T15:25:59.710Z,6.60
2022-12-25T15:27:31.575Z,6.60
2022-12-25T15:29:06.637Z,6.30
2022-12-25T15:30:39.681Z,5.70
2022-12-25T15:32:23.577Z,6.40
2022-12-25T15:34:00.801Z,6.80
2022-12-25T15:35:36.669Z,7.30
2022-12-25T15:37:08.420Z,7.70
2022-12-25T15:38:40.325Z,6.50
2022-12-25T15:40:15.315Z,7.80
2022-12-25T15:42:07.051Z,6.70
2022-12-25T15:43:41.030Z,6.70
2022-12-25T15:45:24.248Z,7.40
2022-12-25T15:46:57.260Z,6.60
2022-12-25T15:48:30.659Z,7.10
2022-12-25T15:50:03.927Z,5.30
2022-12-25T15:51:35.775Z,6.90
2022-12-25T15:53:11.137Z,6.10
2022-12-25T15:54:46.350Z,6.10
2022-12-25T15:56:19.244Z,5.60
2022-12-25T15:57:54.768Z,6.50
2022-12-25T15:59:26.773Z,5.80
2022-12-25T16:00:58.529Z,5.80
2022-12-25T16:02:30.415Z,5.80
2022-12-25T16:04:02.502Z,7.20
2022-12-25T16:05:34.378Z,5.40
2022-12-25T16:07:09.560Z,5.30
2022-12-25T16:08:43.436Z,5.40
2022-12-25T16:10:19.652Z,5.50
2022-12-25T16:11:51.507Z,6.40
2022-12-25T16:13:23.648Z,6.50
2022-12-25T16:14:55.707Z,5.80
2022-12-25T16:16:28.201Z,5.90
2022-12-25T16:18:03.635Z,5.50
2022-12-25T16:19:35.342Z,5.10
2022-12-25T16:21:15.001Z,4.90
2022-12-25T16:22:46.935Z,5.30
2022-12-25T16:24:20.076Z,5.50
2022-12-25T16:25:53.688Z,5.60
2022-12-25T16:27:28.182Z,5.40
2022-12-25T16:29:07.026Z,5.80
2022-12-25T16:30:43.005Z,5.80
2022-12-25T16:32:22.313Z,6.20
2022-12-25T16:34:07.706Z,6.50
2022-12-25T16:35:39.725Z,6.10
2022-12-25T16:37:15.100Z,5.40
2022-12-25T16:38:47.239Z,5.10
2022-12-25T16:40:20.417Z,4.90
2022-12-25T16:41:52.663Z,5.20
2022-12-25T16:43:25.585Z,5.70
2022-12-25T16:44:58.907Z,5.80
2022-12-25T16:46:31.333Z,5.00
2022-12-25T16:48:03.252Z,5.40
2022-12-25T16:49:36.510Z,4.60
2022-12-25T16:51:20.894Z,5.20
2022-12-25T16:52:52.737Z,5.40
2022-12-25T16:54:24.539Z,5.50
2022-12-25T16:56:09.632Z,5.30
2022-12-25T16:57:42.463Z,3.70
2022-12-25T16:59:14.253Z,5.00
2022-12-25T17:00:51.568Z,5.60
2022-12-25T17:02:24.158Z,6.00
2022-12-25T17:04:03.698Z,5.30
2022-12-25T17:05:35.633Z,5.00
2022-12-25T17:07:07.418Z,5.40
2022-12-25T17:08:40.740Z,5.30
2022-12-25T17:10:13.390Z,5.30
2022-12-25T17:11:45.184Z,5.20
2022-12-25T17:13:18.876Z,5.00
2022-12-25T17:14:50.928Z,4.90
2022-12-25T17:16:29.729Z,5.20
2022-12-25T17:18:01.531Z,4.40
2022-12-25T17:19:33.405Z,5.30
2022-12-25T17:21:05.563Z,5.10
2022-12-25T17:22:37.462Z,4.70
2022-12-25T17:24:09.931Z,5.40
2022-12-25T17:25:41.685Z,4.60
2022-12-25T17:27:13.586Z,4.80
2022-12-25T17:28:45.336Z,4.80
2022-12-25T17:30:17.232Z,4.50
2022-12-25T17:31:49.175Z,4.80
2022-12-25T17:33:22.325Z,5.30
2022-12-25T17:34:55.245Z,4.00
2022-12-25T17:36:28.049Z,4.50
2022-12-25T17:37:59.779Z,4.20
2022-12-25T17:39:32.018Z,4.30
2022-12-25T17:41:08.707Z,4.60
2022-12-25T17:42:40.784Z,4.70
2022-12-25T17:44:12.662Z,3.20
2022-12-25T17:45:44.465Z,3.70
2022-12-25T17:47:16.292Z,4.00
2022-12-25T17:48:51.986Z,4.70
2022-12-25T17:50:25.739Z,4.30
2022-12-25T17:51:58.508Z,4.40
2022-12-25T17:53:30.919Z,4.30
2022-12-25T17:55:03.382Z,3.90
2022-12-25T17:56:35.834Z,3.90
2022-12-25T17:58:09.387Z,4.10
2022-12-25T17:59:53.748Z,4.30
2022-12-25T18:01:29.936Z,3.50
2022-12-25T18:03:10.826Z,4.00
2022-12-25T18:04:43.173Z,3.70
2022-12-25T18:06:20.898Z,3.50
2022-12-25T18:07:54.189Z,3.80
2022-12-25T18:09:26.154Z,3.70
2022-12-25T18:11:08.312Z,4.60
2022-12-25T18:12:40.446Z,3.80
2022-12-25T18:14:20.218Z,4.20
2022-12-25T18:15:52.099Z,3.40
2022-12-25T18:17:24.536Z,3.30
2022-12-25T18:18:57.645Z,3.80
2022-12-25T18:20:39.351Z,3.80
2022-12-25T18:22:11.948Z,3.60
2022-12-25T18:23:46.756Z,3.20
2022-12-25T18:25:18.802Z,3.30
2022-12-25T18:26:52.732Z,3.60
2022-12-25T18:28:24.629Z,3.50
2022-12-25T18:29:56.714Z,3.00
2022-12-25T18:31:33.306Z,3.30
2022-12-25T18:33:07.149Z,2.80
2022-12-25T18:34:43.071Z,2.40
2022-12-25T18:36:20.657Z,2.60
2022-12-25T18:37:52.458Z,2.90
2022-12-25T18:41:14.255Z,2.50
2022-12-25T18:42:47.294Z,2.20
2022-12-25T18:44:27.169Z,2.80
2022-12-25T18:46:06.038Z,3.00
2022-12-25T18:47:39.141Z,2.50
2022-12-25T18:49:12.352Z,2.60
2022-12-25T18:50:44.481Z,2.70
2022-12-25T18:52:48.335Z,2.40
2022-12-25T18:54:15.754Z,2.80
2022-12-25T18:55:47.937Z,2.60
2022-12-25T18:57:20.485Z,2.70
2022-12-25T18:58:54.109Z,2.90
2022-12-25T19:00:28.913Z,2.90
2022-12-25T19:02:02.834Z,3.00
2022-12-25T19:03:36.578Z,2.50
2022-12-25T19:05:10.145Z,2.50
2022-12-25T19:06:43.985Z,3.10
2022-12-25T19:08:15.788Z,3.30
2022-12-25T19:09:47.648Z,3.20
2022-12-25T19:11:25.103Z,3.90
2022-12-25T19:12:56.857Z,3.60
2022-12-25T19:14:29.046Z,3.10
2022-12-25T19:16:00.880Z,3.70
2022-12-25T19:17:34.380Z,2.50
2022-12-25T19:19:06.883Z,3.40
2022-12-25T19:20:41.771Z,3.20
2022-12-25T19:22:14.223Z,3.30
2022-12-25T19:23:46.592Z,3.70
2022-12-25T19:25:19.178Z,3.60
2022-12-25T19:26:51.723Z,3.20
2022-12-25T19:28:25.480Z,3.20
2022-12-25T19:29:57.227Z,3.50
2022-12-25T19:31:30.365Z,3.10
2022-12-25T19:33:03.015Z,3.60
2022-12-25T19:34:34.934Z,3.20
2022-12-25T19:36:14.273Z,3.60
2022-12-25T19:37:46.748Z,3.50
2022-12-25T19:39:19.909Z,3.40
2022-12-25T19:41:01.338Z,3.80
2022-12-25T19:42:33.235Z,4.50
2022-12-25T19:44:06.809Z,3.90
2022-12-25T19:45:38.654Z,4.00
2022-12-25T19:47:11.887Z,3.80
2022-12-25T19:48:43.723Z,4.60
2022-12-25T19:50:15.482Z,4.30
2022-12-25T19:51:48.911Z,5.10
2022-12-25T19:53:25.481Z,5.40
2022-12-25T19:54:57.377Z,4.60
2022-12-25T19:56:29.847Z,4.70
2022-12-25T19:58:01.983Z,4.70
2022-12-25T19:59:33.771Z,4.50
2022-12-25T20:01:11.509Z,5.00
2022-12-25T20:02:43.529Z,4.50
2022-12-25T20:04:18.145Z,4.40
2022-12-25T20:05:49.913Z,5.40
2022-12-25T20:07:21.835Z,4.30
2022-12-25T20:08:58.662Z,6.00
2022-12-25T20:10:30.439Z,6.30
2022-12-25T20:12:02.409Z,4.90
2022-12-25T20:13:34.168Z,5.40
2022-12-25T20:15:07.471Z,5.90
2022-12-25T20:16:40.807Z,4.80
2022-12-25T20:18:13.734Z,5.70
2022-12-25T20:19:45.457Z,6.70
2022-12-25T20:21:22.701Z,5.80
2022-12-25T20:22:54.815Z,5.80
2022-12-25T20:24:28.933Z,5.50
2022-12-25T20:26:05.464Z,5.40
2022-12-25T20:27:37.184Z,5.20
2022-12-25T20:29:09.003Z,5.00
2022-12-25T20:30:40.809Z,6.00
2022-12-25T20:32:14.993Z,5.30
2022-12-25T20:33:48.486Z,5.10
2022-12-25T20:35:20.234Z,4.80
2022-12-25T20:36:52.217Z,4.70
2022-12-25T20:38:23.916Z,5.40
2022-12-25T20:39:55.891Z,5.30
2022-12-25T20:41:29.535Z,4.60
2022-12-25T20:43:01.953Z,4.90
2022-12-25T20:44:33.727Z,5.30
2022-12-25T20:46:07.209Z,5.10
2022-12-25T20:47:39.116Z,5.20
2022-12-25T20:49:11.152Z,5.00
2022-12-25T20:50:42.866Z,5.10
2022-12-25T20:52:14.990Z,6.20
2022-12-25T20:53:51.159Z,4.90
2022-12-25T20:55:23.552Z,5.40
2022-12-25T20:56:55.282Z,4.80
2022-12-25T20:58:29.080Z,5.90
2022-12-25T21:00:00.848Z,5.10
2022-12-25T21:01:32.821Z,5.50
2022-12-25T21:03:04.753Z,4.70
2022-12-25T21:04:36.671Z,5.10
2022-12-25T21:06:10.555Z,5.60
2022-12-25T21:07:42.411Z,5.70
2022-12-25T21:09:14.150Z,5.20
2022-12-25T21:10:50.655Z,6.00
2022-12-25T21:12:22.609Z,6.20
2022-12-25T21:13:54.588Z,5.10
2022-12-25T21:15:26.849Z,4.70
2022-12-25T21:16:58.978Z,4.10
2022-12-25T21:18:30.968Z,6.00
2022-12-25T21:20:03.154Z,5.70
2022-12-25T21:21:36.337Z,4.90
2022-12-25T21:23:08.149Z,5.50
2022-12-25T21:24:40.184Z,5.10
2022-12-25T21:26:26.709Z,5.80
2022-12-25T21:27:58.420Z,5.70
2022-12-25T21:29:30.134Z,4.40
2022-12-25T21:31:08.673Z,3.50
2022-12-25T21:32:59.202Z,4.80
2022-12-25T21:34:31.076Z,4.90
2022-12-25T21:36:12.444Z,4.80
2022-12-25T21:37:46.422Z,5.10
2022-12-25T21:39:20.139Z,4.90
2022-12-25T21:40:52.099Z,4.90
2022-12-25T21:42:25.927Z,5.30
2022-12-25T21:44:02.385Z,5.60
2022-12-25T21:45:36.210Z,4.50
2022-12-25T21:47:09.531Z,5.30
2022-12-25T21:48:43.485Z,6.50
2022-12-25T21:50:39.251Z,4.70
2022-12-25T21:52:20.448Z,5.10
2022-12-25T21:53:55.927Z,5.30
2022-12-25T21:55:29.796Z,4.60
2022-12-25T21:57:01.859Z,4.70
2022-12-25T21:58:36.684Z,4.70
2022-12-25T22:00:09.888Z,5.00
2022-12-25T22:01:42.310Z,3.90
2022-12-25T22:03:16.705Z,4.10
2022-12-25T22:04:48.749Z,4.30